createdAt,value
2022-09-15T00:02:13.677Z,77.21
2022-09-15T00:04:40.396Z,77.28
2022-09-15T00:07:07.210Z,77.06
2022-09-15T00:09:33.785Z,76.96
2022-09-15T00:12:00.904Z,77.13
2022-09-15T00:14:27.522Z,77.21
2022-09-15T00:16:54.359Z,77.12
2022-09-15T00:19:20.833Z,77.66
2022-09-15T00:21:47.509Z,77.94
2022-09-15T00:24:14.213Z,77.17
2022-09-15T00:26:40.766Z,77.57
2022-09-15T00:29:07.235Z,77.86
2022-09-15T00:31:33.915Z,78.31
2022-09-15T00:34:04.930Z,78.40
2022-09-15T00:36:32.228Z,77.94
2022-09-15T00:38:59.125Z,78.43
2022-09-15T00:41:26.017Z,78.21
2022-09-15T00:44:04.135Z,78.47
2022-09-15T00:46:32.485Z,78.27
2022-09-15T00:49:07.466Z,78.86
2022-09-15T00:51:40.272Z,78.67
2022-09-15T00:54:17.558Z,78.07
2022-09-15T00:56:45.434Z,78.75
2022-09-15T00:59:22.710Z,78.99
2022-09-15T01:01:55.277Z,78.83
2022-09-15T01:04:21.894Z,79.44
2022-09-15T01:06:54.008Z,79.12
2022-09-15T01:09:31.664Z,79.00
2022-09-15T01:11:58.607Z,79.52
2022-09-15T01:17:27.287Z,79.61
2022-09-15T01:20:21.447Z,79.63
2022-09-15T01:23:06.674Z,79.73
2022-09-15T01:25:55.175Z,80.16
2022-09-15T01:28:43.956Z,80.04
2022-09-15T01:31:33.819Z,79.68
2022-09-15T01:34:14.875Z,79.70
2022-09-15T01:36:52.636Z,79.99
2022-09-15T01:39:28.396Z,80.16
2022-09-15T01:41:59.015Z,80.23
2022-09-15T01:44:29.849Z,80.06
2022-09-15T01:47:05.438Z,80.08
2022-09-15T01:49:42.999Z,80.20
2022-09-15T01:52:09.715Z,80.26
2022-09-15T01:54:48.945Z,80.37
2022-09-15T01:57:22.665Z,80.68
2022-09-15T01:59:50.721Z,80.46
2022-09-15T02:02:22.788Z,80.47
2022-09-15T02:04:57.837Z,80.35
2022-09-15T02:07:41.344Z,79.97
2022-09-15T02:10:22.030Z,80.81
2022-09-15T02:13:00.010Z,80.59
2022-09-15T02:15:55.736Z,80.11
2022-09-15T02:18:39.214Z,80.43
2022-09-15T02:21:21.108Z,80.65
2022-09-15T02:23:56.229Z,80.50
2022-09-15T02:26:27.827Z,80.77
2022-09-15T02:28:56.803Z,81.51
2022-09-15T02:31:25.577Z,81.22
2022-09-15T02:33:59.392Z,81.84
2022-09-15T02:36:29.100Z,80.85
2022-09-15T02:39:02.990Z,81.22
2022-09-15T02:41:29.892Z,81.62
2022-09-15T02:43:56.887Z,81.92
2022-09-15T02:46:24.161Z,81.61
2022-09-15T02:48:50.809Z,81.30
2022-09-15T02:51:18.797Z,81.54
2022-09-15T02:53:46.816Z,81.85
2022-09-15T02:56:17.752Z,81.56
2022-09-15T02:58:47.517Z,82.14
2022-09-15T03:01:15.749Z,82.33
2022-09-15T03:03:44.392Z,82.43
2022-09-15T03:06:18.348Z,82.09
2022-09-15T03:08:56.346Z,81.96
2022-09-15T03:11:26.866Z,81.93
2022-09-15T03:13:55.625Z,81.94
2022-09-15T03:16:24.571Z,82.22
2022-09-15T03:18:51.322Z,82.41
2022-09-15T03:21:18.967Z,82.65
2022-09-15T03:23:45.963Z,82.87
2022-09-15T03:26:13.026Z,82.51
2022-09-15T03:28:40.293Z,82.92
2022-09-15T03:31:08.855Z,82.80
2022-09-15T03:33:35.803Z,82.81
2022-09-15T03:36:03.596Z,82.90
2022-09-15T03:38:30.435Z,82.69
2022-09-15T03:41:05.635Z,82.70
2022-09-15T03:43:33.439Z,83.16
2022-09-15T03:46:01.512Z,82.94
2022-09-15T03:48:30.937Z,82.76
2022-09-15T03:50:57.834Z,82.61
2022-09-15T03:53:24.640Z,82.37
2022-09-15T03:55:51.530Z,82.30
2022-09-15T03:58:18.617Z,82.83
2022-09-15T04:00:47.022Z,82.07
2022-09-15T04:03:13.977Z,82.69
2022-09-15T04:05:40.619Z,82.16
2022-09-15T04:08:07.112Z,82.22
2022-09-15T04:10:33.728Z,81.74
2022-09-15T04:13:00.214Z,82.31
2022-09-15T04:15:26.786Z,82.18
2022-09-15T04:17:56.539Z,81.59
2022-09-15T04:20:23.643Z,81.25
2022-09-15T04:22:50.410Z,81.74
2022-09-15T04:25:17.179Z,81.34
2022-09-15T04:27:43.709Z,81.68
2022-09-15T04:30:10.642Z,81.78
2022-09-15T04:32:37.235Z,81.78
2022-09-15T04:35:04.914Z,81.99
2022-09-15T04:37:32.397Z,80.92
2022-09-15T04:39:59.764Z,81.69
2022-09-15T04:42:26.322Z,81.69
2022-09-15T04:44:53.221Z,81.66
2022-09-15T04:47:19.810Z,81.01
2022-09-15T04:49:46.504Z,81.66
2022-09-15T04:52:13.388Z,80.50
2022-09-15T04:54:40.154Z,81.66
2022-09-15T04:57:06.958Z,80.69
2022-09-15T04:59:33.751Z,81.12
2022-09-15T05:02:00.605Z,81.15
2022-09-15T05:04:27.983Z,81.15
2022-09-15T05:06:54.727Z,80.64
2022-09-15T05:09:21.491Z,81.52
2022-09-15T05:11:47.986Z,81.38
2022-09-15T05:14:14.642Z,80.61
2022-09-15T05:16:41.316Z,80.77
2022-09-15T05:19:08.005Z,80.98
2022-09-15T05:21:34.539Z,80.93
2022-09-15T05:24:01.882Z,81.19
2022-09-15T05:26:29.579Z,80.64
2022-09-15T05:28:59.808Z,80.73
2022-09-15T05:31:31.198Z,80.81
2022-09-15T05:34:01.318Z,80.85
2022-09-15T05:36:28.545Z,80.68
2022-09-15T05:38:59.122Z,81.15
2022-09-15T05:41:27.818Z,81.35
2022-09-15T05:43:56.991Z,81.13
2022-09-15T05:46:26.308Z,81.02
2022-09-15T05:48:55.418Z,80.61
2022-09-15T05:51:22.543Z,80.98
2022-09-15T05:53:49.423Z,80.16
2022-09-15T05:56:17.348Z,80.58
2022-09-15T05:58:46.200Z,80.06
2022-09-15T06:01:22.721Z,80.54
2022-09-15T06:03:49.982Z,80.73
2022-09-15T06:06:17.226Z,80.44
2022-09-15T06:08:48.261Z,80.64
2022-09-15T06:11:18.809Z,80.37
2022-09-15T06:13:46.408Z,80.56
2022-09-15T06:16:19.492Z,80.25
2022-09-15T06:18:47.559Z,79.53
2022-09-15T06:21:23.252Z,80.57
2022-09-15T06:24:00.771Z,79.97
2022-09-15T06:26:28.350Z,80.20
2022-09-15T06:28:57.782Z,79.95
2022-09-15T06:31:29.067Z,79.67
2022-09-15T06:33:57.629Z,80.05
2022-09-15T06:36:26.731Z,79.70
2022-09-15T06:38:54.075Z,78.89
2022-09-15T06:41:21.066Z,79.01
2022-09-15T06:43:51.637Z,78.43
2022-09-15T06:46:21.382Z,77.00
2022-09-15T06:48:49.141Z,76.48
2022-09-15T06:51:17.969Z,76.63
2022-09-15T06:53:45.674Z,76.30
2022-09-15T06:56:14.595Z,76.19
2022-09-15T06:58:42.247Z,75.56
2022-09-15T07:01:12.315Z,74.17
2022-09-15T07:03:41.976Z,74.01
2022-09-15T07:06:10.092Z,74.04
2022-09-15T07:08:36.925Z,74.18
2022-09-15T07:11:04.117Z,74.07
2022-09-15T07:13:33.239Z,74.71
2022-09-15T07:16:02.138Z,75.18
2022-09-15T07:18:28.609Z,74.78
2022-09-15T07:21:06.540Z,75.22
2022-09-15T07:23:36.622Z,75.10
2022-09-15T07:26:10.924Z,74.98
2022-09-15T07:28:37.525Z,75.07
2022-09-15T07:31:05.920Z,74.53
2022-09-15T07:33:33.673Z,74.00
2022-09-15T07:36:04.835Z,73.58
2022-09-15T07:38:31.535Z,72.10
2022-09-15T07:41:12.895Z,72.30
2022-09-15T07:43:40.056Z,72.10
2022-09-15T07:46:07.062Z,71.97
2022-09-15T07:48:33.803Z,72.09
2022-09-15T07:51:00.235Z,72.15
2022-09-15T07:53:30.370Z,71.69
2022-09-15T07:55:56.892Z,72.14
2022-09-15T07:58:23.704Z,72.13
2022-09-15T08:00:50.168Z,71.84
2022-09-15T08:03:16.783Z,70.76
2022-09-15T08:05:45.550Z,71.18
2022-09-15T08:08:12.283Z,71.20
2022-09-15T08:10:41.093Z,71.47
2022-09-15T08:13:07.636Z,71.55
2022-09-15T08:15:36.849Z,70.54
2022-09-15T08:18:03.728Z,69.22
2022-09-15T08:20:31.535Z,69.53
2022-09-15T08:22:58.159Z,69.90
2022-09-15T08:25:24.779Z,69.38
2022-09-15T08:27:53.687Z,68.52
2022-09-15T08:30:21.207Z,68.49
2022-09-15T08:32:47.928Z,67.83
2022-09-15T08:35:16.005Z,67.91
2022-09-15T08:37:42.556Z,67.16
2022-09-15T08:40:22.742Z,68.24
2022-09-15T08:42:55.442Z,68.60
2022-09-15T08:45:27.842Z,68.30
2022-09-15T08:48:01.400Z,68.41
2022-09-15T08:50:50.113Z,68.13
2022-09-15T08:53:28.769Z,68.91
2022-09-15T08:55:59.057Z,68.02
2022-09-15T08:58:29.651Z,68.02
2022-09-15T09:01:02.278Z,68.26
2022-09-15T09:03:56.789Z,68.44
2022-09-15T09:06:46.820Z,69.48
2022-09-15T09:09:51.073Z,69.68
2022-09-15T09:12:43.555Z,69.45
2022-09-15T09:15:25.716Z,68.95
2022-09-15T09:18:14.466Z,69.30
2022-09-15T09:21:04.321Z,69.30
2022-09-15T09:23:33.821Z,69.46
2022-09-15T09:26:02.240Z,70.47
2022-09-15T09:28:30.651Z,71.20
2022-09-15T09:31:15.528Z,72.25
2022-09-15T09:33:47.925Z,76.62
2022-09-15T09:36:15.164Z,79.27
2022-09-15T09:38:45.174Z,80.23
2022-09-15T09:41:17.023Z,81.47
2022-09-15T09:43:47.518Z,80.83
2022-09-15T09:46:17.753Z,81.63
2022-09-15T09:48:50.105Z,80.46
2022-09-15T09:51:31.363Z,80.40
2022-09-15T09:54:04.918Z,80.28
2022-09-15T09:56:31.366Z,80.25
2022-09-15T09:58:57.932Z,79.27
2022-09-15T10:01:26.011Z,81.01
2022-09-15T10:04:13.303Z,79.92
2022-09-15T10:06:41.083Z,79.20
2022-09-15T10:09:16.999Z,79.50
2022-09-15T10:11:56.117Z,78.13
2022-09-15T10:14:25.715Z,79.33
2022-09-15T10:17:00.816Z,77.31
2022-09-15T10:19:30.587Z,77.25
2022-09-15T10:21:59.440Z,77.53
2022-09-15T10:24:41.694Z,76.78
2022-09-15T10:27:18.052Z,77.88
2022-09-15T10:29:44.889Z,78.58
2022-09-15T10:32:25.865Z,78.84
2022-09-15T10:35:11.531Z,78.37
2022-09-15T10:37:58.314Z,78.01
2022-09-15T10:40:39.282Z,77.89
2022-09-15T10:43:11.962Z,77.88
2022-09-15T10:45:40.382Z,75.37
2022-09-15T10:48:25.354Z,75.92
2022-09-15T10:51:19.384Z,75.67
2022-09-15T10:54:08.334Z,75.27
2022-09-15T10:56:41.711Z,74.12
2022-09-15T10:59:29.709Z,71.16
2022-09-15T11:02:15.311Z,71.12
2022-09-15T11:04:49.591Z,71.07
2022-09-15T11:07:54.093Z,70.93
2022-09-15T11:10:28.911Z,67.87
2022-09-15T11:13:00.988Z,67.39
2022-09-15T11:15:54.848Z,66.24
2022-09-15T11:18:29.136Z,65.25
2022-09-15T11:21:07.388Z,62.99
2022-09-15T11:23:39.875Z,63.17
2022-09-15T11:26:35.078Z,63.23
2022-09-15T11:29:07.389Z,62.03
2022-09-15T11:31:39.648Z,61.26
2022-09-15T11:34:40.180Z,60.98
2022-09-15T11:37:17.801Z,60.49
2022-09-15T11:40:00.709Z,59.90
2022-09-15T11:42:35.152Z,59.92
2022-09-15T11:45:03.364Z,59.60
2022-09-15T11:47:42.616Z,58.63
2022-09-15T11:50:20.626Z,59.44
2022-09-15T11:53:28.030Z,57.45
2022-09-15T11:56:15.973Z,55.45
2022-09-15T11:58:55.173Z,55.31
2022-09-15T12:01:25.255Z,55.05
2022-09-15T12:03:59.454Z,52.67
2022-09-15T12:06:42.004Z,51.42
2022-09-15T12:09:14.336Z,49.86
2022-09-15T12:11:46.764Z,49.80
2022-09-15T12:14:28.365Z,47.71
2022-09-15T12:16:55.965Z,47.86
2022-09-15T12:19:47.579Z,49.00
2022-09-15T12:22:27.028Z,53.62
2022-09-15T12:25:01.607Z,54.78
2022-09-15T12:27:28.868Z,55.81
2022-09-15T12:29:58.284Z,57.50
2022-09-15T12:32:29.031Z,57.56
2022-09-15T12:35:17.607Z,58.45
2022-09-15T12:37:47.231Z,59.79
2022-09-15T12:40:39.993Z,60.65
2022-09-15T12:43:13.281Z,60.56
2022-09-15T12:45:43.167Z,60.97
2022-09-15T12:48:19.211Z,61.24
2022-09-15T12:50:54.955Z,61.16
2022-09-15T12:53:47.845Z,60.03
2022-09-15T12:56:29.346Z,59.93
2022-09-15T12:58:56.321Z,58.88
2022-09-15T13:01:22.903Z,59.35
2022-09-15T13:04:00.673Z,59.35
2022-09-15T13:06:29.588Z,60.22
2022-09-15T13:09:02.290Z,60.12
2022-09-15T13:11:36.844Z,60.08
2022-09-15T13:14:03.466Z,59.23
2022-09-15T13:16:47.066Z,59.07
2022-09-15T13:19:21.981Z,56.29
2022-09-15T13:21:58.576Z,56.35
2022-09-15T13:24:30.917Z,57.42
2022-09-15T13:26:57.876Z,55.58
2022-09-15T13:29:28.890Z,55.56
2022-09-15T13:32:13.600Z,55.91
2022-09-15T13:35:09.088Z,54.54
2022-09-15T13:38:19.990Z,55.02
2022-09-15T13:41:10.174Z,55.25
2022-09-15T13:44:14.225Z,53.24
2022-09-15T13:46:46.582Z,52.09
2022-09-15T13:49:35.896Z,51.60
2022-09-15T13:52:23.491Z,53.45
2022-09-15T13:55:14.759Z,54.04
2022-09-15T14:00:35.184Z,54.48
2022-09-15T14:03:20.462Z,55.02
2022-09-15T14:05:47.304Z,56.75
2022-09-15T14:08:22.864Z,59.01
2022-09-15T14:10:58.505Z,59.21
2022-09-15T14:13:28.464Z,60.74
2022-09-15T14:16:00.918Z,61.09
2022-09-15T14:18:28.727Z,60.76
2022-09-15T14:21:00.459Z,60.41
2022-09-15T14:23:26.909Z,59.49
2022-09-15T14:25:53.484Z,58.62
2022-09-15T14:28:31.302Z,59.27
2022-09-15T14:31:00.105Z,58.50
2022-09-15T14:33:38.115Z,58.65
2022-09-15T14:36:34.710Z,58.70
2022-09-15T14:39:28.204Z,58.53
2022-09-15T14:41:54.772Z,58.30
2022-09-15T14:47:19.805Z,59.06
2022-09-15T14:49:46.550Z,59.73
2022-09-15T14:52:24.236Z,59.76
2022-09-15T14:54:56.305Z,60.75
2022-09-15T14:57:30.646Z,61.00
2022-09-15T15:00:12.307Z,61.44
2022-09-15T15:02:47.155Z,60.62
2022-09-15T15:05:27.948Z,61.21
2022-09-15T15:07:55.597Z,61.71
2022-09-15T15:10:26.213Z,60.89
2022-09-15T15:12:57.602Z,60.70
2022-09-15T15:15:24.970Z,61.51
2022-09-15T15:17:54.744Z,61.22
2022-09-15T15:20:33.056Z,61.14
2022-09-15T15:23:15.594Z,61.56
2022-09-15T15:25:42.889Z,60.69
2022-09-15T15:28:28.911Z,61.68
2022-09-15T15:31:19.880Z,61.88
2022-09-15T15:34:19.449Z,61.74
2022-09-15T15:36:46.116Z,62.34
2022-09-15T15:39:26.981Z,61.94
2022-09-15T15:42:02.610Z,62.58
2022-09-15T15:44:31.285Z,63.28
2022-09-15T15:47:23.487Z,64.93
2022-09-15T15:50:12.265Z,65.75
2022-09-15T15:52:39.340Z,64.16
2022-09-15T15:55:06.399Z,64.33
2022-09-15T15:57:38.176Z,63.94
2022-09-15T16:00:21.042Z,64.28
2022-09-15T16:02:48.533Z,65.50
2022-09-15T16:05:15.439Z,66.11
2022-09-15T16:07:44.127Z,66.88
2022-09-15T16:10:16.935Z,66.30
2022-09-15T16:12:43.603Z,66.70
2022-09-15T16:15:12.374Z,67.08
2022-09-15T16:17:43.070Z,65.61
2022-09-15T16:20:13.255Z,65.06
2022-09-15T16:22:40.613Z,66.14
2022-09-15T16:25:39.524Z,65.16
2022-09-15T16:28:06.371Z,65.61
2022-09-15T16:30:33.375Z,66.42
2022-09-15T16:33:00.385Z,65.49
2022-09-15T16:35:40.165Z,66.18
2022-09-15T16:38:07.897Z,66.35
2022-09-15T16:40:36.178Z,66.09
2022-09-15T16:43:03.721Z,66.61
2022-09-15T16:45:40.599Z,66.60
2022-09-15T16:48:08.202Z,67.05
2022-09-15T16:50:35.564Z,66.79
2022-09-15T16:53:02.728Z,67.66
2022-09-15T16:55:36.570Z,67.61
2022-09-15T16:58:04.799Z,67.99
2022-09-15T17:00:34.708Z,67.91
2022-09-15T17:03:01.421Z,68.34
2022-09-15T17:05:39.875Z,67.99
2022-09-15T17:08:08.986Z,68.20
2022-09-15T17:10:36.583Z,67.92
2022-09-15T17:13:04.190Z,69.32
2022-09-15T17:15:35.651Z,68.83
2022-09-15T17:18:02.744Z,68.69
2022-09-15T17:20:29.389Z,68.29
2022-09-15T17:22:57.739Z,68.23
2022-09-15T17:25:35.703Z,68.50
2022-09-15T17:28:04.144Z,68.38
2022-09-15T17:30:32.306Z,68.29
2022-09-15T17:33:07.477Z,68.67
2022-09-15T17:35:39.416Z,68.69
2022-09-15T17:38:07.590Z,68.87
2022-09-15T17:40:35.697Z,68.36
2022-09-15T17:43:02.831Z,68.42
2022-09-15T17:45:34.878Z,68.21
2022-09-15T17:48:06.393Z,68.14
2022-09-15T17:50:34.918Z,67.44
2022-09-15T17:53:01.880Z,67.53
2022-09-15T17:55:31.533Z,67.39
2022-09-15T17:58:03.241Z,67.23
2022-09-15T18:00:33.268Z,67.58
2022-09-15T18:03:20.205Z,67.57
2022-09-15T18:05:46.769Z,67.82
2022-09-15T18:08:13.725Z,67.49
2022-09-15T18:10:40.133Z,68.16
2022-09-15T18:13:07.186Z,68.24
2022-09-15T18:15:35.095Z,68.11
2022-09-15T18:18:04.320Z,68.40
2022-09-15T18:20:33.706Z,68.45
2022-09-15T18:23:00.817Z,69.17
2022-09-15T18:25:33.566Z,69.21
2022-09-15T18:28:02.091Z,71.13
2022-09-15T18:30:34.636Z,72.17
2022-09-15T18:33:01.163Z,72.25
2022-09-15T18:35:27.761Z,72.52
2022-09-15T18:37:59.361Z,71.66
2022-09-15T18:40:27.699Z,72.50
2022-09-15T18:42:54.732Z,72.85
2022-09-15T18:45:21.319Z,73.99
2022-09-15T18:47:50.153Z,75.91
2022-09-15T18:50:19.183Z,76.97
2022-09-15T18:52:46.568Z,76.71
2022-09-15T18:55:15.945Z,76.69
2022-09-15T18:57:42.772Z,76.45
2022-09-15T19:00:13.736Z,76.17
2022-09-15T19:02:40.962Z,75.68
2022-09-15T19:05:11.077Z,75.10
2022-09-15T19:07:38.920Z,75.16
2022-09-15T19:10:07.144Z,75.15
2022-09-15T19:12:36.254Z,75.29
2022-09-15T19:15:05.201Z,75.20
2022-09-15T19:17:32.162Z,76.60
2022-09-15T19:20:00.294Z,76.38
2022-09-15T19:22:28.343Z,76.16
2022-09-15T19:24:55.358Z,76.18
2022-09-15T19:27:22.353Z,75.93
2022-09-15T19:29:48.802Z,75.76
2022-09-15T19:32:18.327Z,75.67
2022-09-15T19:34:45.980Z,76.15
2022-09-15T19:37:18.337Z,77.11
2022-09-15T19:39:45.875Z,76.78
2022-09-15T19:42:12.698Z,76.43
2022-09-15T19:44:40.507Z,76.64
2022-09-15T19:47:06.985Z,76.11
2022-09-15T19:49:33.456Z,76.58
2022-09-15T19:51:59.878Z,76.65
2022-09-15T19:54:28.530Z,77.09
2022-09-15T19:56:55.984Z,77.07
2022-09-15T19:59:23.813Z,77.25
2022-09-15T20:01:51.741Z,77.06
2022-09-15T20:04:18.146Z,77.93
2022-09-15T20:06:44.454Z,79.53
2022-09-15T20:09:10.994Z,80.30
2022-09-15T20:11:37.858Z,81.46
2022-09-15T20:14:06.385Z,82.01
2022-09-15T20:16:33.491Z,81.87
2022-09-15T20:19:00.375Z,82.14
2022-09-15T20:21:49.428Z,82.42
2022-09-15T20:24:17.554Z,81.56
2022-09-15T20:26:43.899Z,81.70
2022-09-15T20:29:10.742Z,82.13
2022-09-15T20:31:37.553Z,82.72
2022-09-15T20:34:03.864Z,81.95
2022-09-15T20:36:36.368Z,82.14
2022-09-15T20:39:05.226Z,82.07
2022-09-15T20:41:31.937Z,82.55
2022-09-15T20:43:58.694Z,82.06
2022-09-15T20:46:25.217Z,81.52
2022-09-15T20:48:52.178Z,82.48
2022-09-15T20:51:22.625Z,81.74
2022-09-15T20:53:51.223Z,82.32
2022-09-15T20:56:21.138Z,82.09
2022-09-15T20:58:47.814Z,82.07
2022-09-15T21:01:23.102Z,82.20
2022-09-15T21:03:50.165Z,82.05
2022-09-15T21:06:19.481Z,82.38
2022-09-15T21:08:47.581Z,81.61
2022-09-15T21:11:15.789Z,82.14
2022-09-15T21:13:43.398Z,81.67
2022-09-15T21:16:15.111Z,81.77
2022-09-15T21:18:42.721Z,81.86
2022-09-15T21:21:13.637Z,82.26
2022-09-15T21:23:51.702Z,82.24
2022-09-15T21:26:20.250Z,82.03
2022-09-15T21:28:46.794Z,82.46
2022-09-15T21:31:13.183Z,81.81
2022-09-15T21:33:39.810Z,82.05
2022-09-15T21:36:11.169Z,82.30
2022-09-15T21:38:40.342Z,81.87
2022-09-15T21:41:09.252Z,82.51
2022-09-15T21:43:37.973Z,82.64
2022-09-15T21:46:06.178Z,82.59
2022-09-15T21:48:34.709Z,82.59
2022-09-15T21:51:02.469Z,82.72
2022-09-15T21:53:29.291Z,82.86
2022-09-15T21:55:56.634Z,82.46
2022-09-15T21:58:26.144Z,82.50
2022-09-15T22:00:53.269Z,82.54
2022-09-15T22:03:20.739Z,82.30
2022-09-15T22:05:47.997Z,82.94
2022-09-15T22:08:16.006Z,82.30
2022-09-15T22:10:43.829Z,82.33
2022-09-15T22:13:12.555Z,82.57
2022-09-15T22:15:38.983Z,82.43
2022-09-15T22:18:06.603Z,83.12
2022-09-15T22:20:33.041Z,83.06
2022-09-15T22:23:02.538Z,82.53
2022-09-15T22:25:29.260Z,83.36
2022-09-15T22:27:55.633Z,83.50
2022-09-15T22:30:22.038Z,83.36
2022-09-15T22:32:48.401Z,83.20
2022-09-15T22:35:15.168Z,82.84
2022-09-15T22:37:41.609Z,83.38
2022-09-15T22:40:09.006Z,83.39
2022-09-15T22:42:35.649Z,82.80
2022-09-15T22:45:01.985Z,82.68
2022-09-15T22:47:28.364Z,82.93
2022-09-15T22:49:55.128Z,82.47
2022-09-15T22:52:21.549Z,83.38
2022-09-15T22:54:47.933Z,83.22
2022-09-15T22:57:14.280Z,82.99
2022-09-15T22:59:40.642Z,83.13
2022-09-15T23:02:07.091Z,82.82
2022-09-15T23:04:33.609Z,82.91
2022-09-15T23:06:59.949Z,83.02
2022-09-15T23:09:26.477Z,83.13
2022-09-15T23:11:52.855Z,82.77
2022-09-15T23:14:19.199Z,82.82
2022-09-15T23:16:45.580Z,82.79
2022-09-15T23:19:13.496Z,82.14
2022-09-15T23:21:39.923Z,83.08
2022-09-15T23:24:06.672Z,82.85
2022-09-15T23:26:33.002Z,83.43
2022-09-15T23:28:59.384Z,83.05
2022-09-15T23:31:25.792Z,83.69
2022-09-15T23:33:52.228Z,84.02
2022-09-15T23:36:22.167Z,83.62
2022-09-15T23:38:49.392Z,83.67
2022-09-15T23:41:16.971Z,83.52
2022-09-15T23:43:43.441Z,83.77
2022-09-15T23:46:10.532Z,83.85
2022-09-15T23:48:37.399Z,83.75
2022-09-15T23:51:04.491Z,83.58
2022-09-15T23:53:31.201Z,84.20
2022-09-15T23:55:57.648Z,84.40
2022-09-15T23:58:24.854Z,84.35
